Flight Track Log - Related Links

Times and Time Zones

All times are in EDT time to prevent confusion due to time zone crossing. See the N717D flight status page for this flight to view local times or setup timezone preferences in your user account.

Time Position Orientation Groundspeed Altitude Reporting Facility
EDT Latitude Longitude Course Direction KTS MPH feet Rate Location/Type
Thu 03:43:40 PM 41.8000 -87.7667 22° Northeast 155 178 2,000  Level Chicago TRACON
Thu 03:44:25 PM 41.8250 -87.7531 22° Northeast 237 273 3,400 1,121 Climbing Chicago Center
Thu 03:45:27 PM 41.8092 -87.6672 104° East 241 277 4,000 1,056 Climbing Chicago Center
Thu 03:46:30 PM 41.8008 -87.5492 95° East 261 300 5,600 2,304 Climbing Chicago Center
Thu 03:47:32 PM 41.8325 -87.4525 66° East 281 323 8,800 3,097 Climbing Chicago Center
Thu 03:48:34 PM 41.8261 -87.3519 95° East 295 339 12,000 2,758 Climbing Chicago Center
Thu 03:49:36 PM 41.7861 -87.2489 117° Southeast 310 357 14,500 2,177 Climbing Chicago Center
Thu 03:50:38 PM 41.7692 -87.1258 100° East 333 383 16,500 2,081 Climbing Chicago Center
Thu 03:51:40 PM 41.7600 -86.9750 95° East 340 391 18,800 1,839 Climbing Chicago Center
Thu 03:52:42 PM 41.7647 -86.8442 87° East 352 405 20,300 1,403 Climbing Chicago Center
Thu 03:53:44 PM 41.7658 -86.7083 89° East 364 419 21,700 1,355 Climbing Chicago Center
Thu 03:54:46 PM 41.7658 -86.5539 90° East 377 434 23,100 1,258 Climbing Chicago Center
Thu 03:55:48 PM 41.7672 -86.4053 89° East 397 457 24,300 919 Climbing Chicago Center
Thu 03:56:50 PM 41.7650 -86.2547 91° East 404 465 25,000 581 Climbing Chicago Center
Thu 03:57:52 PM 41.7511 -86.0964 97° East 427 491 25,500 968 Climbing Chicago Center
Thu 03:58:54 PM 41.7414 -85.9400 95° East 424 488 27,000 1,200 Climbing Chicago Center
Thu 03:59:57 PM 41.7289 -85.7853 96° East 420 483 28,000 864 Climbing Chicago Center
Thu 04:00:59 PM 41.7175 -85.6258 95° East 426 490 28,800 968 Climbing Chicago Center
Thu 04:02:01 PM 41.7022 -85.4422 96° East 434 499 30,000 1,065 Climbing Chicago Center
Thu 04:03:03 PM 41.6906 -85.2622 95° East 438 504 31,000 774 Climbing Chicago Center
Thu 04:04:05 PM 41.6767 -85.1017 97° East 436 502 31,600 484 Climbing Chicago Center
Thu 04:05:07 PM 41.6636 -84.9417 96° East 434 499 32,000 629 Climbing Chicago Center
Thu 04:06:09 PM 41.6497 -84.7811 97° East 436 502 32,900 496 Climbing Chicago Center
Thu 04:07:08 PM 41.6369 -84.6122 96° East 428 493 33,000 48 Climbing Cleveland Center
Thu 04:08:13 PM 41.6225 -84.4567 97° East 442 509 33,000 142 Level Chicago Center
Thu 04:09:15 PM 41.6072 -84.2914 97° East 447 514 33,300 968 Climbing Chicago Center
Thu 04:10:17 PM 41.5900 -84.1003 97° East 433 498 35,000 1,452 Climbing Chicago Center
Thu 04:11:19 PM 41.5769 -83.9511 97° East 411 473 36,300 1,071 Climbing Chicago Center
Thu 04:12:09 PM 41.5639 -83.8275 98° East 407 468 37,000 385 Climbing Cleveland Center
Thu 04:13:08 PM 41.5472 -83.6742 98° East 407 468 37,000 400 Level Cleveland Center
Thu 04:14:09 PM 41.5344 -83.5208 96° East 412 474 37,800 900 Climbing Cleveland Center
Thu 04:15:08 PM 41.5175 -83.3675 98° East 412 474 38,800 605 Climbing Cleveland Center
Thu 04:16:08 PM 41.5022 -83.2200 98° East 407 468 39,000 100 Climbing Cleveland Center
Thu 04:17:08 PM 41.4908 -83.0836 96° East 407 468 39,000  Level Cleveland Center
Thu 04:18:08 PM 41.4772 -82.9306 97° East 413 475 39,000  Level Cleveland Center
Thu 04:19:08 PM 41.4597 -82.7581 98° East 413 475 39,000  Level Cleveland Center
Thu 04:20:08 PM 41.4439 -82.5997 98° East 428 493 39,000  Level Cleveland Center
Thu 04:21:08 PM 41.4258 -82.4442 99° East 428 493 39,000  Level Cleveland Center
Thu 04:22:08 PM 41.4094 -82.2803 98° East 428 493 39,000  Level Cleveland Center
Thu 04:23:08 PM 41.3931 -82.1247 98° East 428 493 39,000  Level Cleveland Center
Thu 04:24:08 PM 41.3803 -81.9806 97° East 428 493 39,000  Level Cleveland Center
Thu 04:25:08 PM 41.3656 -81.8197 97° East 428 493 39,000 -250 Level Cleveland Center
Thu 04:26:08 PM 41.3461 -81.6647 99° East 428 493 38,500 -950 Descending Cleveland Center
Thu 04:27:08 PM 41.3289 -81.5011 98° East 428 493 37,100 -750 Descending Cleveland Center
Thu 04:28:08 PM 41.3050 -81.3267 100° East 428 493 37,000 -700 Descending Cleveland Center
Thu 04:29:08 PM 41.2853 -81.1633 99° East 434 499 35,700 -1,350 Descending Cleveland Center
Thu 04:30:08 PM 41.2672 -81.0142 99° East 427 491 34,300 -1,500 Descending Cleveland Center
Thu 04:31:08 PM 41.2508 -80.8567 98° East 421 484 32,700 -1,550 Descending Cleveland Center
Thu 04:32:08 PM 41.2303 -80.7047 100° East 421 484 31,200 -1,100 Descending Cleveland Center
Thu 04:33:08 PM 41.2136 -80.5500 98° East 426 490 30,500 -1,150 Descending Cleveland Center
Thu 04:34:08 PM 41.1928 -80.3900 100° East 426 490 28,900 -1,550 Descending Cleveland Center
Thu 04:35:08 PM 41.1756 -80.2494 99° East 426 490 27,400 -1,550 Descending Cleveland Center
Thu 04:36:08 PM 41.1583 -80.0950 98° East 426 490 25,800 -1,700 Descending Cleveland Center
Thu 04:37:08 PM 41.1347 -79.9297 101° East 420 483 24,000 -900 Descending Cleveland Center
Thu 04:38:08 PM 41.1172 -79.7950 100° East 414 476 24,000  Level Cleveland Center
Thu 04:39:08 PM 41.1014 -79.6489 98° East 409 471 24,000  Level Cleveland Center
Thu 04:40:08 PM 41.0794 -79.5006 101° East 409 471 24,000 -300 Level Cleveland Center
Thu 04:41:08 PM 41.0611 -79.3522 99° East 409 471 23,400 -1,400 Descending Cleveland Center
Thu 04:42:08 PM 41.0431 -79.2122 100° East 398 458 21,200 -2,200 Descending Cleveland Center
Thu 04:43:08 PM 41.0244 -79.0747 100° East 387 445 19,000 -2,133 Descending Cleveland Center
Thu 04:44:54 PM 40.9856 -78.8233 102° East 387 445 15,300 -2,464 Descending New York Center
Thu 04:45:56 PM 40.9700 -78.7142 101° East 372 428 12,100 -2,115 Descending New York Center
Thu 04:46:56 PM 40.9569 -78.5972 98° East 342 394 11,000 -559 Descending New York Center
Thu 04:47:54 PM 40.9378 -78.4767 102° East 330 380 11,000  Level New York Center
Thu 04:48:54 PM 40.9225 -78.3569 100° East 330 380 11,000 -843 Level New York Center
Thu 04:49:55 PM 40.9044 -78.2506 103° East 316 364 9,300 -1,934 Descending New York Center
Thu 04:50:55 PM 40.8767 -78.1597 112° Southeast 289 333 7,100 -2,132 Descending New York Center
Thu 04:51:56 PM 40.8506 -78.0772 113° Southeast 264 304 5,000 -1,537 Descending New York Center
Thu 04:52:56 PM 40.8192 -78.0108 122° Southeast 237 273 4,000 -915 Descending New York Center
Thu 04:53:54 PM 40.7975 -77.9564 118° Southeast 202 232 3,200 -864 Descending New York Center
Thu 04:54:54 PM 40.8128 -77.9114 66° East 138 159 2,300 -900 Descending New York Center

Login

Don't have an account? Register now (free) for customized features, flight alerts, and more!